createdAt,value
2018-02-13T00:00:59.264Z,190.3
2018-02-13T00:10:59.130Z,186.6
2018-02-13T00:20:59.254Z,209.6
2018-02-13T00:30:59.101Z,236.6
2018-02-13T00:40:58.928Z,216.4
2018-02-13T00:50:59.731Z,241.4
2018-02-13T01:00:59.550Z,232.2
2018-02-13T01:10:59.402Z,246.5
2018-02-13T01:20:59.334Z,259.4
2018-02-13T01:30:59.124Z,262.6
2018-02-13T01:40:58.912Z,239.2
2018-02-13T01:50:59.706Z,242.9
2018-02-13T02:00:59.566Z,208.7
2018-02-13T02:10:59.388Z,154.6
2018-02-13T02:20:59.378Z,138.4
2018-02-13T02:30:59.173Z,118.7
2018-02-13T02:40:58.886Z,63.4
2018-02-13T02:50:59.683Z,37.6
2018-02-13T03:00:59.482Z,38.9
2018-02-13T03:10:59.261Z,38.0
2018-02-13T03:20:59.186Z,43.0
2018-02-13T03:30:59.000Z,51.2
2018-02-13T03:40:59.804Z,61.6
2018-02-13T03:50:59.609Z,60.8
2018-02-13T04:00:59.456Z,59.6
2018-02-13T04:10:59.243Z,60.7
2018-02-13T04:20:59.094Z,68.0
2018-02-13T04:30:58.932Z,88.7
2018-02-13T04:40:59.777Z,97.3
2018-02-13T04:50:59.583Z,98.5
2018-02-13T05:00:59.410Z,102.8
2018-02-13T05:10:59.106Z,93.9
2018-02-13T05:20:59.032Z,102.7
2018-02-13T05:30:59.418Z,102.4
2018-02-13T05:40:59.190Z,98.4
2018-02-13T05:50:59.081Z,100.0
2018-02-13T06:00:58.836Z,94.5
2018-02-13T06:10:59.500Z,95.1
2018-02-13T06:20:59.408Z,85.8
2018-02-13T06:30:59.196Z,86.2
2018-02-13T06:40:58.934Z,84.9
2018-02-13T06:50:59.703Z,93.1
2018-02-13T07:00:59.490Z,76.9
2018-02-13T07:10:59.286Z,79.7
2018-02-13T07:20:59.128Z,80.6
2018-02-13T07:30:58.913Z,77.3
2018-02-13T07:40:59.751Z,78.7
2018-02-13T07:50:59.578Z,78.5
2018-02-13T08:00:59.405Z,79.4
2018-02-13T08:10:59.174Z,80.6
2018-02-13T08:20:59.170Z,85.1
2018-02-13T08:30:58.972Z,87.6
2018-02-13T08:40:59.751Z,78.5
2018-02-13T08:50:59.445Z,68.2
2018-02-13T09:00:59.245Z,62.6
2018-02-13T09:10:58.961Z,67.0
2018-02-13T09:20:58.853Z,96.4
2018-02-13T09:30:59.609Z,72.9
2018-02-13T09:40:59.416Z,88.1
2018-02-13T09:50:59.230Z,80.7
2018-02-13T10:00:59.015Z,75.8
2018-02-13T10:10:59.653Z,76.2
2018-02-13T10:20:59.441Z,69.0
2018-02-13T10:30:59.094Z,70.2
2018-02-13T10:40:58.808Z,69.3
2018-02-13T10:50:59.554Z,66.7
2018-02-13T11:00:59.397Z,71.5
2018-02-13T11:10:59.248Z,72.8
2018-02-13T11:20:59.209Z,70.2
2018-02-13T11:30:59.018Z,66.4
2018-02-13T11:40:59.757Z,68.0
2018-02-13T11:50:59.619Z,64.5
2018-02-13T12:00:59.451Z,62.1
2018-02-13T12:10:59.195Z,69.9
2018-02-13T12:20:59.096Z,66.3
2018-02-13T12:30:58.897Z,67.6
2018-02-13T12:40:59.712Z,68.4
2018-02-13T12:50:59.527Z,66.7
2018-02-13T13:00:59.323Z,75.1
2018-02-13T13:10:59.097Z,69.3
2018-02-13T13:20:59.026Z,62.9
2018-02-13T13:30:58.743Z,62.1
2018-02-13T13:40:59.533Z,68.2
2018-02-13T13:50:59.335Z,61.1
2018-02-13T14:00:59.134Z,62.3
2018-02-13T14:10:58.928Z,62.8
2018-02-13T14:20:58.844Z,64.8
2018-02-13T14:30:59.596Z,64.6
2018-02-13T14:40:59.375Z,60.0
2018-02-13T14:50:59.204Z,60.4
2018-02-13T15:00:58.987Z,54.3
2018-02-13T15:10:59.679Z,67.5
2018-02-13T15:20:59.576Z,69.7
2018-02-13T15:30:59.361Z,71.7
2018-02-13T15:40:59.174Z,72.1
2018-02-13T15:50:58.980Z,68.6
2018-02-13T16:00:59.801Z,76.5
2018-02-13T16:10:59.627Z,74.7
2018-02-13T16:20:59.598Z,89.1
2018-02-13T16:30:59.406Z,92.9
2018-02-13T16:40:59.112Z,99.8
2018-02-13T16:50:58.913Z,97.8
2018-02-13T17:00:59.770Z,83.3
2018-02-13T17:10:59.512Z,84.8
2018-02-13T17:20:59.503Z,70.1
2018-02-13T17:31:00.027Z,86.6
2018-02-13T17:40:59.859Z,72.2
2018-02-13T17:50:59.639Z,69.8
2018-02-13T18:00:59.458Z,72.1
2018-02-13T18:10:59.302Z,67.1
2018-02-13T18:20:59.296Z,61.5
2018-02-13T18:30:59.120Z,68.8
2018-02-13T18:40:58.932Z,97.5
2018-02-13T18:50:59.721Z,82.5
2018-02-13T19:00:59.539Z,78.0
2018-02-13T19:10:59.332Z,109.6
2018-02-13T19:20:59.399Z,95.4
2018-02-13T19:30:59.412Z,96.6
2018-02-13T19:40:59.806Z,111.7
2018-02-13T19:50:59.770Z,110.3
2018-02-13T20:00:59.739Z,103.6
2018-02-13T20:11:00.109Z,119.9
2018-02-13T20:20:59.164Z,113.7
2018-02-13T20:30:59.214Z,114.6
2018-02-13T20:40:59.197Z,116.0
2018-02-13T20:50:59.131Z,114.4
2018-02-13T21:00:59.057Z,122.7
2018-02-13T21:10:59.050Z,113.0
2018-02-13T21:20:59.228Z,107.5
2018-02-13T21:30:59.310Z,94.4
2018-02-13T21:40:59.176Z,85.7
2018-02-13T21:50:58.955Z,86.4
2018-02-13T22:00:59.767Z,80.8
2018-02-13T22:10:59.588Z,74.3
2018-02-13T22:20:59.486Z,69.4
2018-02-13T22:30:59.286Z,85.4
2018-02-13T22:40:59.059Z,71.7
2018-02-13T22:50:58.894Z,76.8
2018-02-13T23:00:59.702Z,74.1
2018-02-13T23:10:59.505Z,95.4
2018-02-13T23:20:59.406Z,89.0
2018-02-13T23:30:59.243Z,78.3
2018-02-13T23:40:59.030Z,74.8
2018-02-13T23:50:59.831Z,78.5
